首页
METAR-TAF:

METAR-TAF

机场 :

Grande Prairie, 艾伯塔, 加拿大

纬度: 55-11N, 经度: 118-53W, 海拔: 666米

当前天气观测

该预报发布于21分钟前的18:00 UTC
风速19节,风向西,有时为24节阵风
温度 15°C
湿度 51%
气压 1011 hPa
能見度: 40.2公里
多云层高于5300英尺

METAR: CYQU 081800Z 27019G24KT 25SM BKN053 15/05 A2986 RMK SC7 SLP125 DENSITY ALT 2800FT

时间: 12:21 (18:21 UTC)

预报

该预报发布于5小时和43分钟前的12:38 UTC
预报有效从08日的 13点(UTC)到 09日的 01点(UTC)
风速12节,风向西转西南,有时为22节阵风
能見度: 10公里
少量云层高于4000英尺
从 08日的 1800点(UTC)
风速20节,风向西,有时为30节阵风
能見度: 10公里
多云层高于6000英尺

TAF: CYQU 081238Z 0813/0901 24012G22KT P6SM FEW040 FM081800 28020G30KT P6SM BKN060 RMK NXT FCST BY 081900Z

超过4000个机场的气象观测和天气预报(METAR&TAF报告)。

可查询的气象台以黄色和红色小点在地图上表示。

将鼠标移到小点上方,可查看气象台名称。

然后点击查看天气观测和预报。

如需切换地图:点击带黑十字的绿色按钮放大地图;点击带横线的绿色按钮缩小地图;或者点击绿色箭头查看邻近地区的地图。


METAR-TAF: